Terminal Aerodrome Forecast
Issued by NWS

Home | Current Version | Previous Version | Text Only | Print | Product List | Glossary On
Versions: 1 2 3 4 5 6 7 8 9 10 11 12 13 14 15 16 17 18 19 20 21 22 23 24
000
FTUS45 KGJT 160535
TAFDRO
TAF
KDRO 160535Z 1606/1706 03005KT P6SM FEW140 SCT250
     FM161200 08003KT P6SM FEW250
     FM162100 36008KT P6SM VCTS FEW090CB SCT150
     FM170200 03006KT P6SM SCT110 BKN200=

USA.gov is the U.S. government's official web portal to all federal, state and local government web resources and services.